createdAt,value
2022-11-28T00:00:15.893Z,67.76
2022-11-28T00:01:15.891Z,67.76
2022-11-28T00:02:15.970Z,67.76
2022-11-28T00:03:21.926Z,67.76
2022-11-28T00:04:16.007Z,67.76
2022-11-28T00:05:15.897Z,67.76
2022-11-28T00:06:15.895Z,67.76
2022-11-28T00:07:15.956Z,67.76
2022-11-28T00:08:15.890Z,67.76
2022-11-28T00:09:15.895Z,67.76
2022-11-28T00:10:15.912Z,67.76
2022-11-28T00:11:15.894Z,67.76
2022-11-28T00:12:15.884Z,67.76
2022-11-28T00:13:15.884Z,67.76
2022-11-28T00:14:15.903Z,67.76
2022-11-28T00:15:15.897Z,67.76
2022-11-28T00:16:15.985Z,67.76
2022-11-28T00:17:15.901Z,67.76
2022-11-28T00:18:15.896Z,67.76
2022-11-28T00:19:15.901Z,67.76
2022-11-28T00:20:16.013Z,67.76
2022-11-28T00:21:15.901Z,67.76
2022-11-28T00:22:15.901Z,67.76
2022-11-28T00:23:15.905Z,67.76
2022-11-28T00:24:15.902Z,67.76
2022-11-28T00:25:15.913Z,67.76
2022-11-28T00:26:15.905Z,67.76
2022-11-28T00:27:15.909Z,67.76
2022-11-28T00:28:15.905Z,67.76
2022-11-28T00:29:15.910Z,67.76
2022-11-28T00:30:15.912Z,67.76
2022-11-28T00:31:15.935Z,67.76
2022-11-28T00:32:16.037Z,67.76
2022-11-28T00:33:15.919Z,67.76
2022-11-28T00:34:15.913Z,67.76
2022-11-28T00:35:15.918Z,67.76
2022-11-28T00:36:16.034Z,67.76
2022-11-28T00:37:15.914Z,67.76
2022-11-28T00:38:15.932Z,67.76
2022-11-28T00:39:15.925Z,67.76
2022-11-28T00:40:15.920Z,67.76
2022-11-28T00:41:15.934Z,67.76
2022-11-28T00:42:15.934Z,67.76
2022-11-28T00:43:15.927Z,67.76
2022-11-28T00:44:15.934Z,67.76
2022-11-28T00:45:15.927Z,67.76
2022-11-28T00:46:16.000Z,67.76
2022-11-28T00:47:15.914Z,67.76
2022-11-28T00:48:15.933Z,67.76
2022-11-28T00:49:15.934Z,67.76
2022-11-28T00:50:15.937Z,67.76
2022-11-28T00:51:15.937Z,67.76
2022-11-28T00:52:21.868Z,67.76
2022-11-28T00:53:16.047Z,67.76
2022-11-28T00:54:15.925Z,67.76
2022-11-28T00:55:15.925Z,67.76
2022-11-28T00:56:15.930Z,67.76
2022-11-28T00:57:15.928Z,67.76
2022-11-28T00:58:15.937Z,67.76
2022-11-28T00:59:15.935Z,67.76
2022-11-28T01:00:15.936Z,67.76
2022-11-28T01:01:16.026Z,67.76
2022-11-28T01:02:15.983Z,67.76
2022-11-28T01:03:15.937Z,67.76
2022-11-28T01:04:15.936Z,67.76
2022-11-28T01:05:15.941Z,67.76
2022-11-28T01:06:15.942Z,67.76
2022-11-28T01:07:15.943Z,67.76
2022-11-28T01:08:15.954Z,67.76
2022-11-28T01:09:16.056Z,67.76
2022-11-28T01:10:15.943Z,67.76
2022-11-28T01:11:15.942Z,67.76
2022-11-28T01:12:15.936Z,67.76
2022-11-28T01:13:15.942Z,67.76
2022-11-28T01:14:15.947Z,67.76
2022-11-28T01:15:15.954Z,67.76
2022-11-28T01:16:15.972Z,67.76
2022-11-28T01:17:15.949Z,67.76
2022-11-28T01:18:15.950Z,67.76
2022-11-28T01:19:16.163Z,67.76
2022-11-28T01:20:15.951Z,67.76
2022-11-28T01:21:15.948Z,67.76
2022-11-28T01:22:15.948Z,67.76
2022-11-28T01:23:15.953Z,67.76
2022-11-28T01:24:15.951Z,67.76
2022-11-28T01:25:16.067Z,67.76
2022-11-28T01:26:15.962Z,67.76
2022-11-28T01:27:15.963Z,67.76
2022-11-28T01:28:15.949Z,67.76
2022-11-28T01:29:15.958Z,67.76
2022-11-28T01:30:15.972Z,67.76
2022-11-28T01:31:16.007Z,67.76
2022-11-28T01:32:15.966Z,67.76
2022-11-28T01:33:15.972Z,67.76
2022-11-28T01:34:15.966Z,67.76
2022-11-28T01:35:16.004Z,67.76
2022-11-28T01:36:15.970Z,67.76
2022-11-28T01:37:15.982Z,67.76
2022-11-28T01:38:15.974Z,67.76
2022-11-28T01:39:15.973Z,67.76
2022-11-28T01:40:15.976Z,67.76
2022-11-28T01:41:16.094Z,67.76
2022-11-28T01:42:15.976Z,67.76
2022-11-28T01:43:15.976Z,67.76
2022-11-28T01:44:15.976Z,67.76
2022-11-28T01:45:15.980Z,67.76
2022-11-28T01:46:16.033Z,67.76
2022-11-28T01:47:16.005Z,67.76
2022-11-28T01:48:15.994Z,86.12
2022-11-28T01:49:15.971Z,91.76
2022-11-28T01:50:15.985Z,93.18
2022-11-28T01:51:15.984Z,77.65
2022-11-28T01:52:15.972Z,93.18
2022-11-28T01:53:15.986Z,101.65
2022-11-28T01:54:15.994Z,114.35
2022-11-28T01:55:15.977Z,91.76
2022-11-28T01:56:15.987Z,69.18
2022-11-28T01:57:16.105Z,69.18
2022-11-28T01:58:15.982Z,299.29
2022-11-28T01:59:15.989Z,279.53
2022-11-28T02:00:15.995Z,279.53
2022-11-28T02:01:16.102Z,279.53
2022-11-28T02:02:16.065Z,279.53
2022-11-28T02:03:15.990Z,279.53
2022-11-28T02:04:16.000Z,279.53
2022-11-28T02:05:15.998Z,279.53
2022-11-28T02:06:15.995Z,279.53
2022-11-28T02:07:16.036Z,182.12
2022-11-28T02:08:15.998Z,182.12
2022-11-28T02:09:16.014Z,182.12
2022-11-28T02:10:15.997Z,176.47
2022-11-28T02:11:16.003Z,179.29
2022-11-28T02:12:15.995Z,168
2022-11-28T02:13:16.107Z,159.53
2022-11-28T02:14:16.005Z,145.41
2022-11-28T02:15:16.006Z,103.06
2022-11-28T02:16:16.074Z,103.06
2022-11-28T02:17:16.015Z,91.76
2022-11-28T02:18:16.004Z,101.65
2022-11-28T02:19:16.002Z,101.65
2022-11-28T02:20:16.004Z,101.65
2022-11-28T02:21:15.995Z,101.65
2022-11-28T02:22:16.004Z,101.65
2022-11-28T02:23:16.004Z,101.65
2022-11-28T02:24:16.011Z,101.65
2022-11-28T02:25:16.007Z,101.65
2022-11-28T02:26:16.012Z,101.65
2022-11-28T02:27:16.016Z,101.65
2022-11-28T02:28:16.010Z,101.65
2022-11-28T02:29:16.130Z,101.65
2022-11-28T02:30:16.036Z,101.65
2022-11-28T02:31:16.042Z,101.65
2022-11-28T02:32:16.017Z,101.65
2022-11-28T02:33:16.021Z,101.65
2022-11-28T02:34:16.015Z,101.65
2022-11-28T02:35:16.025Z,101.65
2022-11-28T02:36:16.020Z,101.65
2022-11-28T02:37:16.043Z,101.65
2022-11-28T02:38:16.013Z,101.65
2022-11-28T02:39:16.026Z,101.65
2022-11-28T02:40:16.017Z,101.65
2022-11-28T02:41:16.025Z,101.65
2022-11-28T02:42:16.025Z,101.65
2022-11-28T02:43:16.027Z,101.65
2022-11-28T02:44:16.023Z,101.65
2022-11-28T02:45:16.131Z,101.65
2022-11-28T02:46:16.103Z,101.65
2022-11-28T02:47:16.036Z,101.65
2022-11-28T02:48:16.030Z,101.65
2022-11-28T02:49:16.029Z,101.65
2022-11-28T02:50:16.026Z,101.65
2022-11-28T02:51:16.021Z,101.65
2022-11-28T02:52:16.029Z,101.65
2022-11-28T02:53:16.026Z,101.65
2022-11-28T02:54:16.031Z,101.65
2022-11-28T02:55:16.044Z,101.65
2022-11-28T02:56:16.029Z,101.65
2022-11-28T02:57:16.035Z,101.65
2022-11-28T02:58:16.038Z,101.65
2022-11-28T02:59:16.041Z,101.65
2022-11-28T03:00:17.807Z,101.65
2022-11-28T03:01:16.207Z,101.65
2022-11-28T03:02:16.111Z,101.65
2022-11-28T03:03:16.057Z,101.65
2022-11-28T03:04:16.048Z,101.65
2022-11-28T03:05:16.038Z,101.65
2022-11-28T03:06:16.047Z,101.65
2022-11-28T03:07:16.108Z,101.65
2022-11-28T03:08:16.032Z,101.65
2022-11-28T03:09:16.035Z,101.65
2022-11-28T03:10:16.046Z,101.65
2022-11-28T03:11:16.047Z,101.65
2022-11-28T03:12:16.057Z,101.65
2022-11-28T03:13:16.043Z,101.65
2022-11-28T03:14:16.057Z,101.65
2022-11-28T03:15:16.044Z,101.65
2022-11-28T03:16:16.077Z,101.65
2022-11-28T03:17:16.163Z,101.65
2022-11-28T03:18:16.046Z,101.65
2022-11-28T03:19:16.049Z,101.65
2022-11-28T03:20:16.053Z,101.65
2022-11-28T03:21:16.055Z,101.65
2022-11-28T03:22:16.056Z,101.65
2022-11-28T03:23:16.063Z,101.65
2022-11-28T03:24:16.057Z,101.65
2022-11-28T03:25:16.049Z,101.65
2022-11-28T03:26:16.057Z,101.65
2022-11-28T03:27:16.054Z,101.65
2022-11-28T03:28:16.057Z,101.65
2022-11-28T03:29:16.070Z,101.65
2022-11-28T03:30:16.069Z,101.65
2022-11-28T03:31:16.118Z,101.65
2022-11-28T03:32:16.058Z,101.65
2022-11-28T03:33:16.173Z,101.65
2022-11-28T03:34:16.074Z,101.65
2022-11-28T03:35:16.069Z,101.65
2022-11-28T03:36:16.064Z,101.65
2022-11-28T03:37:16.067Z,101.65
2022-11-28T03:38:16.060Z,101.65
2022-11-28T03:39:16.076Z,101.65
2022-11-28T03:40:16.063Z,101.65
2022-11-28T03:41:16.066Z,101.65
2022-11-28T03:42:16.069Z,101.65
2022-11-28T03:43:16.079Z,101.65
2022-11-28T03:44:16.084Z,101.65
2022-11-28T03:45:16.075Z,101.65
2022-11-28T03:46:16.145Z,101.65
2022-11-28T03:47:16.067Z,101.65
2022-11-28T03:48:16.070Z,101.65
2022-11-28T03:49:16.180Z,101.65
2022-11-28T03:50:16.076Z,101.65
2022-11-28T03:51:16.072Z,101.65
2022-11-28T03:52:16.084Z,101.65
2022-11-28T03:53:16.075Z,101.65
2022-11-28T03:54:16.081Z,101.65
2022-11-28T03:55:16.207Z,101.65
2022-11-28T03:56:16.096Z,101.65
2022-11-28T03:57:16.079Z,101.65
2022-11-28T03:58:16.070Z,101.65
2022-11-28T03:59:16.081Z,101.65
2022-11-28T04:00:16.072Z,101.65
2022-11-28T04:01:16.138Z,101.65
2022-11-28T04:02:16.092Z,101.65
2022-11-28T04:03:16.154Z,101.65
2022-11-28T04:04:16.094Z,101.65
2022-11-28T04:05:16.199Z,101.65
2022-11-28T04:06:16.085Z,101.65
2022-11-28T04:07:16.119Z,101.65
2022-11-28T04:08:16.081Z,101.65
2022-11-28T04:09:16.074Z,101.65
2022-11-28T04:10:16.103Z,101.65
2022-11-28T04:11:16.080Z,101.65
2022-11-28T04:12:16.093Z,101.65
2022-11-28T04:13:16.085Z,101.65
2022-11-28T04:14:16.092Z,101.65
2022-11-28T04:15:16.098Z,101.65
2022-11-28T04:16:16.140Z,101.65
2022-11-28T04:17:16.092Z,101.65
2022-11-28T04:18:16.090Z,101.65
2022-11-28T04:19:16.100Z,101.65
2022-11-28T04:20:16.086Z,101.65
2022-11-28T04:21:16.207Z,101.65
2022-11-28T04:22:16.087Z,101.65
2022-11-28T04:23:16.083Z,101.65
2022-11-28T04:24:16.087Z,101.65
2022-11-28T04:25:16.092Z,101.65
2022-11-28T04:26:16.087Z,101.65
2022-11-28T04:27:16.107Z,101.65
2022-11-28T04:28:16.094Z,101.65
2022-11-28T04:29:16.086Z,101.65
2022-11-28T04:30:16.082Z,101.65
2022-11-28T04:31:16.123Z,101.65
2022-11-28T04:32:16.093Z,101.65
2022-11-28T04:33:16.076Z,101.65
2022-11-28T04:34:16.085Z,101.65
2022-11-28T04:35:16.094Z,101.65
2022-11-28T04:36:16.099Z,101.65
2022-11-28T04:37:16.202Z,101.65
2022-11-28T04:38:16.097Z,101.65
2022-11-28T04:39:16.094Z,101.65
2022-11-28T04:40:16.095Z,101.65
2022-11-28T04:41:16.096Z,101.65
2022-11-28T04:42:16.093Z,101.65
2022-11-28T04:43:16.088Z,101.65
2022-11-28T04:44:16.092Z,101.65
2022-11-28T04:45:16.099Z,101.65
2022-11-28T04:46:16.186Z,101.65
2022-11-28T04:47:16.094Z,101.65
2022-11-28T04:48:16.089Z,101.65
2022-11-28T04:49:16.096Z,101.65
2022-11-28T04:50:16.096Z,101.65
2022-11-28T04:51:16.102Z,101.65
2022-11-28T04:52:16.101Z,101.65
2022-11-28T04:53:16.225Z,101.65
2022-11-28T04:54:16.098Z,101.65
2022-11-28T04:55:16.105Z,101.65
2022-11-28T04:56:16.105Z,101.65
2022-11-28T04:57:16.104Z,101.65
2022-11-28T04:58:16.109Z,101.65
2022-11-28T04:59:16.102Z,101.65
2022-11-28T05:00:16.105Z,101.65
2022-11-28T05:01:16.165Z,101.65
2022-11-28T05:02:16.149Z,101.65
2022-11-28T05:03:16.115Z,101.65
2022-11-28T05:04:16.110Z,101.65
2022-11-28T05:05:16.110Z,101.65
2022-11-28T05:06:16.107Z,101.65
2022-11-28T05:07:16.158Z,101.65
2022-11-28T05:08:16.122Z,101.65
2022-11-28T05:09:16.230Z,101.65
2022-11-28T05:10:16.115Z,101.65
2022-11-28T05:11:16.120Z,101.65
2022-11-28T05:12:16.123Z,101.65
2022-11-28T05:13:16.122Z,101.65
2022-11-28T05:14:16.119Z,101.65
2022-11-28T05:15:16.125Z,101.65
2022-11-28T05:16:16.176Z,101.65
2022-11-28T05:17:16.125Z,101.65
2022-11-28T05:18:16.131Z,101.65
2022-11-28T05:19:16.129Z,101.65
2022-11-28T05:20:16.128Z,101.65
2022-11-28T05:21:16.130Z,101.65
2022-11-28T05:22:16.129Z,101.65
2022-11-28T05:23:16.124Z,101.65
2022-11-28T05:24:16.141Z,101.65
2022-11-28T05:25:16.247Z,101.65
2022-11-28T05:26:16.126Z,101.65
2022-11-28T05:27:16.127Z,101.65
2022-11-28T05:28:16.125Z,101.65
2022-11-28T05:29:16.144Z,101.65
2022-11-28T05:30:16.127Z,101.65
2022-11-28T05:31:16.173Z,101.65
2022-11-28T05:32:16.140Z,101.65
2022-11-28T05:33:16.135Z,101.65
2022-11-28T05:34:16.142Z,101.65
2022-11-28T05:35:16.134Z,101.65
2022-11-28T05:36:16.147Z,101.65
2022-11-28T05:37:16.138Z,101.65
2022-11-28T05:38:16.151Z,101.65
2022-11-28T05:39:16.136Z,101.65
2022-11-28T05:40:16.152Z,101.65
2022-11-28T05:41:16.268Z,101.65
2022-11-28T05:42:16.148Z,101.65
2022-11-28T05:43:16.151Z,101.65
2022-11-28T05:44:16.152Z,101.65
2022-11-28T05:45:16.149Z,101.65
2022-11-28T05:46:16.213Z,101.65
2022-11-28T05:47:16.157Z,101.65
2022-11-28T05:48:16.163Z,101.65
2022-11-28T05:49:16.150Z,101.65
2022-11-28T05:50:16.158Z,101.65
2022-11-28T05:51:16.162Z,101.65
2022-11-28T05:52:16.155Z,101.65
2022-11-28T05:53:16.175Z,101.65
2022-11-28T05:54:16.155Z,101.65
2022-11-28T05:55:16.166Z,101.65
2022-11-28T05:56:16.169Z,101.65
2022-11-28T05:57:16.182Z,101.65
2022-11-28T05:58:16.168Z,101.65
2022-11-28T05:59:16.209Z,101.65
2022-11-28T06:00:16.172Z,101.65
2022-11-28T06:01:16.172Z,101.65
2022-11-28T06:02:16.264Z,101.65
2022-11-28T06:03:16.179Z,101.65
2022-11-28T06:04:16.205Z,101.65
2022-11-28T06:05:40.761Z,101.65
2022-11-28T06:06:16.183Z,101.65
2022-11-28T06:07:16.229Z,101.65
2022-11-28T06:08:16.181Z,101.65
2022-11-28T06:09:16.185Z,101.65
2022-11-28T06:10:16.186Z,101.65
2022-11-28T06:11:16.177Z,101.65
2022-11-28T06:12:16.191Z,101.65
2022-11-28T06:13:16.313Z,101.65
2022-11-28T06:14:16.194Z,101.65
2022-11-28T06:15:16.193Z,101.65
2022-11-28T06:16:16.232Z,101.65
2022-11-28T06:17:16.189Z,101.65
2022-11-28T06:18:16.198Z,101.65
2022-11-28T06:19:16.210Z,101.65
2022-11-28T06:20:16.194Z,101.65
2022-11-28T06:21:16.201Z,101.65
2022-11-28T06:22:16.211Z,101.65
2022-11-28T06:23:16.205Z,101.65
2022-11-28T06:24:16.223Z,101.65
2022-11-28T06:25:16.214Z,101.65
2022-11-28T06:26:16.218Z,101.65
2022-11-28T06:27:16.202Z,101.65
2022-11-28T06:28:16.218Z,101.65
2022-11-28T06:29:16.325Z,101.65
2022-11-28T06:30:16.211Z,101.65
2022-11-28T06:31:16.263Z,101.65
2022-11-28T06:32:20.494Z,101.65
2022-11-28T06:33:16.225Z,101.65
2022-11-28T06:34:16.215Z,101.65
2022-11-28T06:35:16.213Z,101.65
2022-11-28T06:36:16.224Z,101.65
2022-11-28T06:37:16.228Z,101.65
2022-11-28T06:38:16.227Z,101.65
2022-11-28T06:39:16.235Z,101.65
2022-11-28T06:40:16.226Z,101.65
2022-11-28T06:41:16.238Z,101.65
2022-11-28T06:42:16.228Z,101.65
2022-11-28T06:43:16.233Z,101.65
2022-11-28T06:44:16.239Z,101.65
2022-11-28T06:45:16.361Z,101.65
2022-11-28T06:46:16.840Z,101.65
2022-11-28T06:47:16.243Z,101.65
2022-11-28T06:48:16.237Z,101.65
2022-11-28T06:49:16.241Z,101.65
2022-11-28T06:50:16.241Z,101.65
2022-11-28T06:51:16.250Z,101.65
2022-11-28T06:52:16.253Z,101.65
2022-11-28T06:53:16.245Z,101.65
2022-11-28T06:54:16.271Z,101.65
2022-11-28T06:55:16.258Z,101.65
2022-11-28T06:56:16.255Z,101.65
2022-11-28T06:57:16.256Z,101.65
2022-11-28T06:58:16.263Z,101.65
2022-11-28T06:59:16.253Z,101.65
2022-11-28T07:00:16.265Z,101.65
2022-11-28T07:01:16.496Z,101.65
2022-11-28T07:02:16.304Z,101.65
2022-11-28T07:03:16.265Z,101.65
2022-11-28T07:04:16.269Z,101.65
2022-11-28T07:05:16.258Z,101.65
2022-11-28T07:06:16.265Z,101.65
2022-11-28T07:07:16.907Z,101.65
2022-11-28T07:08:16.288Z,101.65
2022-11-28T07:09:16.262Z,101.65
2022-11-28T07:10:16.269Z,101.65
2022-11-28T07:11:16.274Z,101.65
2022-11-28T07:12:16.270Z,101.65
2022-11-28T07:13:16.272Z,101.65
2022-11-28T07:14:16.270Z,101.65
2022-11-28T07:15:16.270Z,101.65
2022-11-28T07:16:16.356Z,101.65
2022-11-28T07:17:16.394Z,101.65
2022-11-28T07:18:16.277Z,101.65
2022-11-28T07:19:16.281Z,101.65
2022-11-28T07:20:16.297Z,101.65
2022-11-28T07:21:16.303Z,101.65
2022-11-28T07:22:16.363Z,101.65
2022-11-28T07:23:16.293Z,101.65
2022-11-28T07:24:16.283Z,101.65
2022-11-28T07:25:16.288Z,101.65
2022-11-28T07:26:16.293Z,101.65
2022-11-28T07:27:16.282Z,101.65
2022-11-28T07:28:19.472Z,101.65
2022-11-28T07:29:16.289Z,101.65
2022-11-28T07:30:16.299Z,101.65
2022-11-28T07:31:16.298Z,101.65
2022-11-28T07:32:16.302Z,101.65
2022-11-28T07:33:16.413Z,101.65
2022-11-28T07:34:16.305Z,101.65
2022-11-28T07:35:16.297Z,101.65
2022-11-28T07:36:16.316Z,101.65
2022-11-28T07:37:16.302Z,101.65
2022-11-28T07:38:16.312Z,101.65
2022-11-28T07:39:16.310Z,101.65
2022-11-28T07:40:16.308Z,101.65
2022-11-28T07:41:16.300Z,101.65
2022-11-28T07:42:16.304Z,101.65
2022-11-28T07:43:16.310Z,101.65
2022-11-28T07:44:16.314Z,101.65
2022-11-28T07:45:16.323Z,101.65
2022-11-28T07:46:16.397Z,101.65
2022-11-28T07:47:16.321Z,101.65
2022-11-28T07:48:16.312Z,101.65
2022-11-28T07:49:16.342Z,101.65
2022-11-28T07:50:16.317Z,101.65
2022-11-28T07:51:16.317Z,101.65
2022-11-28T07:52:16.328Z,101.65
2022-11-28T07:53:16.326Z,101.65
2022-11-28T07:54:16.329Z,101.65
2022-11-28T07:55:16.329Z,101.65
2022-11-28T07:56:16.321Z,101.65
2022-11-28T07:57:16.331Z,101.65
2022-11-28T07:58:16.335Z,101.65
2022-11-28T07:59:16.341Z,101.65
2022-11-28T08:00:16.325Z,101.65
2022-11-28T08:01:16.336Z,101.65
2022-11-28T08:02:16.385Z,101.65
2022-11-28T08:03:16.335Z,101.65
2022-11-28T08:04:16.404Z,101.65
2022-11-28T08:05:16.440Z,101.65
2022-11-28T08:06:16.339Z,101.65
2022-11-28T08:07:16.436Z,101.65
2022-11-28T08:08:16.335Z,101.65
2022-11-28T08:09:16.337Z,101.65
2022-11-28T08:10:16.344Z,101.65
2022-11-28T08:11:16.354Z,101.65
2022-11-28T08:12:16.347Z,101.65
2022-11-28T08:13:16.346Z,101.65
2022-11-28T08:14:16.348Z,101.65
2022-11-28T08:15:16.353Z,101.65
2022-11-28T08:16:16.395Z,101.65
2022-11-28T08:17:16.345Z,101.65
2022-11-28T08:18:16.348Z,101.65
2022-11-28T08:19:16.365Z,101.65
2022-11-28T08:20:16.350Z,101.65
2022-11-28T08:21:16.367Z,101.65
2022-11-28T08:22:16.343Z,101.65
2022-11-28T08:23:16.353Z,101.65
2022-11-28T08:24:16.354Z,101.65
2022-11-28T08:25:16.359Z,101.65
2022-11-28T08:26:16.363Z,101.65
2022-11-28T08:27:16.359Z,101.65
2022-11-28T08:28:16.360Z,101.65
2022-11-28T08:29:16.363Z,101.65
2022-11-28T08:30:16.355Z,101.65
2022-11-28T08:31:16.424Z,101.65
2022-11-28T08:32:16.370Z,285.18
2022-11-28T08:33:16.365Z,285.18
2022-11-28T08:34:16.366Z,285.18
2022-11-28T08:35:16.368Z,285.18
2022-11-28T08:36:16.362Z,285.18
2022-11-28T08:37:16.395Z,285.18
2022-11-28T08:38:16.367Z,285.18
2022-11-28T08:39:25.004Z,285.18
2022-11-28T08:40:16.371Z,285.18
2022-11-28T08:41:16.366Z,285.18
2022-11-28T08:42:16.372Z,285.18
2022-11-28T08:43:16.367Z,285.18
2022-11-28T08:44:16.371Z,285.18
2022-11-28T08:45:16.376Z,285.18
2022-11-28T08:46:16.432Z,285.18
2022-11-28T08:47:16.368Z,285.18
2022-11-28T08:48:16.382Z,285.18
2022-11-28T08:49:16.369Z,285.18
2022-11-28T08:50:16.374Z,285.18
2022-11-28T08:51:16.381Z,237.18
2022-11-28T08:52:16.376Z,237.18
2022-11-28T08:53:18.397Z,237.18
2022-11-28T08:54:16.389Z,237.18
2022-11-28T08:55:16.381Z,237.18
2022-11-28T08:56:16.373Z,237.18
2022-11-28T08:57:16.387Z,237.18
2022-11-28T08:58:16.378Z,237.18
2022-11-28T08:59:16.389Z,237.18
2022-11-28T09:00:16.402Z,237.18
2022-11-28T09:01:16.482Z,237.18
2022-11-28T09:02:16.373Z,237.18
2022-11-28T09:03:16.380Z,237.18
2022-11-28T09:04:16.499Z,237.18
2022-11-28T09:05:16.374Z,237.18
2022-11-28T09:06:16.379Z,237.18
2022-11-28T09:07:16.409Z,237.18
2022-11-28T09:08:16.375Z,237.18
2022-11-28T09:09:16.401Z,237.18
2022-11-28T09:10:16.374Z,237.18
2022-11-28T09:11:16.374Z,237.18
2022-11-28T09:12:16.375Z,237.18
2022-11-28T09:13:16.394Z,237.18
2022-11-28T09:14:16.383Z,237.18
2022-11-28T09:15:16.371Z,237.18
2022-11-28T09:16:16.425Z,237.18
2022-11-28T09:17:16.467Z,237.18
2022-11-28T09:18:16.380Z,237.18
2022-11-28T09:19:16.381Z,237.18
2022-11-28T09:20:16.382Z,237.18
2022-11-28T09:21:16.387Z,237.18
2022-11-28T09:22:16.379Z,237.18
2022-11-28T09:23:16.378Z,237.18
2022-11-28T09:24:16.388Z,237.18
2022-11-28T09:25:16.397Z,237.18
2022-11-28T09:26:16.390Z,237.18
2022-11-28T09:27:16.380Z,237.18
2022-11-28T09:28:16.373Z,237.18
2022-11-28T09:29:16.408Z,237.18
2022-11-28T09:30:16.375Z,237.18
2022-11-28T09:31:16.419Z,237.18
2022-11-28T09:32:16.401Z,237.18
2022-11-28T09:33:16.384Z,237.18
2022-11-28T09:34:16.399Z,237.18
2022-11-28T09:35:16.378Z,237.18
2022-11-28T09:36:16.387Z,237.18
2022-11-28T09:37:16.379Z,237.18
2022-11-28T09:38:16.387Z,237.18
2022-11-28T09:39:16.393Z,237.18
2022-11-28T09:40:16.577Z,237.18
2022-11-28T09:41:16.414Z,237.18
2022-11-28T09:42:16.398Z,237.18
2022-11-28T09:43:16.394Z,237.18
2022-11-28T09:44:16.389Z,237.18
2022-11-28T09:45:16.396Z,237.18
2022-11-28T09:46:16.439Z,237.18
2022-11-28T09:47:16.409Z,237.18
2022-11-28T09:48:16.392Z,237.18
2022-11-28T09:49:16.399Z,237.18
2022-11-28T09:50:16.403Z,237.18
2022-11-28T09:51:16.399Z,237.18
2022-11-28T09:52:16.445Z,237.18
2022-11-28T09:53:16.405Z,237.18
2022-11-28T09:54:16.411Z,237.18
2022-11-28T09:55:16.402Z,237.18
2022-11-28T09:56:16.398Z,237.18
2022-11-28T09:57:16.430Z,237.18
2022-11-28T09:58:16.438Z,237.18
2022-11-28T09:59:16.418Z,237.18
2022-11-28T10:00:16.411Z,237.18
2022-11-28T10:01:16.415Z,237.18
2022-11-28T10:02:16.413Z,237.18
2022-11-28T10:03:16.457Z,237.18
2022-11-28T10:04:16.555Z,237.18
2022-11-28T10:05:16.419Z,237.18
2022-11-28T10:06:16.414Z,237.18
2022-11-28T10:07:16.485Z,237.18
2022-11-28T10:08:16.414Z,237.18
2022-11-28T10:09:16.412Z,237.18
2022-11-28T10:10:16.422Z,237.18
2022-11-28T10:11:16.428Z,237.18
2022-11-28T10:12:16.428Z,237.18
2022-11-28T10:13:16.452Z,237.18
2022-11-28T10:14:16.421Z,237.18
2022-11-28T10:15:16.423Z,237.18
2022-11-28T10:16:16.443Z,237.18
2022-11-28T10:17:16.490Z,237.18
2022-11-28T10:18:16.457Z,237.18
2022-11-28T10:19:38.541Z,237.18
2022-11-28T10:20:16.435Z,237.18
2022-11-28T10:21:16.427Z,237.18
2022-11-28T10:22:16.460Z,237.18
2022-11-28T10:23:16.474Z,237.18
2022-11-28T10:24:16.436Z,237.18
2022-11-28T10:25:16.451Z,237.18
2022-11-28T10:26:16.430Z,237.18
2022-11-28T10:27:16.429Z,237.18
2022-11-28T10:28:16.449Z,237.18
2022-11-28T10:29:16.464Z,237.18
2022-11-28T10:30:16.529Z,237.18
2022-11-28T10:31:16.503Z,237.18
2022-11-28T10:32:16.446Z,237.18
2022-11-28T10:33:16.438Z,237.18
2022-11-28T10:34:16.440Z,237.18
2022-11-28T10:35:16.443Z,237.18
2022-11-28T10:36:16.462Z,237.18
2022-11-28T10:37:16.448Z,237.18
2022-11-28T10:38:16.462Z,237.18
2022-11-28T10:39:16.467Z,237.18
2022-11-28T10:40:16.519Z,237.18
2022-11-28T10:41:16.448Z,237.18
2022-11-28T10:42:16.464Z,237.18
2022-11-28T10:43:16.445Z,237.18
2022-11-28T10:44:21.260Z,237.18
2022-11-28T10:45:16.522Z,237.18
2022-11-28T10:46:16.503Z,237.18
2022-11-28T10:47:16.480Z,237.18
2022-11-28T10:48:38.831Z,237.18
2022-11-28T10:49:16.456Z,237.18
2022-11-28T10:50:16.480Z,237.18
2022-11-28T10:51:16.458Z,237.18
2022-11-28T10:52:16.465Z,237.18
2022-11-28T10:53:16.454Z,237.18
2022-11-28T10:54:16.471Z,237.18
2022-11-28T10:55:16.497Z,237.18
2022-11-28T10:56:16.459Z,237.18
2022-11-28T10:57:16.467Z,237.18
2022-11-28T10:58:16.464Z,237.18
2022-11-28T10:59:16.469Z,237.18
2022-11-28T11:00:16.464Z,237.18
2022-11-28T11:01:16.537Z,237.18
2022-11-28T11:02:16.472Z,237.18
2022-11-28T11:03:16.461Z,237.18
2022-11-28T11:04:16.576Z,237.18
2022-11-28T11:05:16.469Z,237.18
2022-11-28T11:06:16.465Z,237.18
2022-11-28T11:07:20.878Z,237.18
2022-11-28T11:08:16.562Z,237.18
2022-11-28T11:09:16.475Z,237.18
2022-11-28T11:10:16.482Z,237.18
2022-11-28T11:11:16.477Z,237.18
2022-11-28T11:12:16.476Z,237.18
2022-11-28T11:13:16.465Z,237.18
2022-11-28T11:14:16.477Z,237.18
2022-11-28T11:15:16.478Z,237.18
2022-11-28T11:16:16.535Z,237.18
2022-11-28T11:17:16.512Z,237.18
2022-11-28T11:18:16.482Z,237.18
2022-11-28T11:19:16.485Z,237.18
2022-11-28T11:20:16.474Z,237.18
2022-11-28T11:21:16.492Z,237.18
2022-11-28T11:22:16.485Z,237.18
2022-11-28T11:23:16.492Z,237.18
2022-11-28T11:24:16.483Z,237.18
2022-11-28T11:25:16.503Z,237.18
2022-11-28T11:26:16.484Z,237.18
2022-11-28T11:27:16.485Z,237.18
2022-11-28T11:28:16.497Z,237.18
2022-11-28T11:29:16.505Z,237.18
2022-11-28T11:30:16.486Z,237.18
2022-11-28T11:31:16.586Z,237.18
2022-11-28T11:32:16.492Z,237.18
2022-11-28T11:33:16.564Z,237.18
2022-11-28T11:34:16.485Z,237.18
2022-11-28T11:35:16.486Z,237.18
2022-11-28T11:36:16.495Z,237.18
2022-11-28T11:37:16.517Z,237.18
2022-11-28T11:38:16.496Z,237.18
2022-11-28T11:39:16.494Z,237.18
2022-11-28T11:40:16.494Z,237.18
2022-11-28T11:41:16.494Z,237.18
2022-11-28T11:42:16.509Z,237.18
2022-11-28T11:43:16.524Z,237.18
2022-11-28T11:44:16.500Z,237.18
2022-11-28T11:45:16.506Z,237.18
2022-11-28T11:46:16.607Z,237.18
2022-11-28T11:47:16.503Z,237.18
2022-11-28T11:48:16.514Z,237.18
2022-11-28T11:49:16.529Z,237.18
2022-11-28T11:50:16.496Z,237.18
2022-11-28T11:51:16.498Z,237.18
2022-11-28T11:52:16.506Z,237.18
2022-11-28T11:53:16.500Z,237.18
2022-11-28T11:54:16.510Z,237.18
2022-11-28T11:55:16.510Z,237.18
2022-11-28T11:56:16.504Z,237.18
2022-11-28T11:57:32.331Z,237.18
2022-11-28T11:58:16.525Z,237.18
2022-11-28T11:59:16.504Z,237.18
2022-11-28T12:00:16.504Z,237.18
2022-11-28T12:01:16.505Z,237.18
2022-11-28T12:02:16.551Z,237.18
2022-11-28T12:03:16.610Z,237.18
2022-11-28T12:04:37.399Z,237.18
2022-11-28T12:05:16.559Z,237.18
2022-11-28T12:06:16.512Z,237.18
2022-11-28T12:07:16.580Z,237.18
2022-11-28T12:08:16.508Z,237.18
2022-11-28T12:09:16.516Z,237.18
2022-11-28T12:10:16.521Z,237.18
2022-11-28T12:11:16.520Z,237.18
2022-11-28T12:12:16.520Z,237.18
2022-11-28T12:13:16.522Z,237.18
2022-11-28T12:14:16.526Z,237.18
2022-11-28T12:15:16.526Z,237.18
2022-11-28T12:16:16.568Z,237.18
2022-11-28T12:17:40.859Z,237.18
2022-11-28T12:18:16.516Z,237.18
2022-11-28T12:19:16.522Z,237.18
2022-11-28T12:20:16.525Z,237.18
2022-11-28T12:21:16.547Z,237.18
2022-11-28T12:22:16.536Z,237.18
2022-11-28T12:23:17.676Z,237.18
2022-11-28T12:24:16.547Z,237.18
2022-11-28T12:25:16.532Z,237.18
2022-11-28T12:26:16.528Z,237.18
2022-11-28T12:27:16.530Z,237.18
2022-11-28T12:28:16.523Z,237.18
2022-11-28T12:29:16.556Z,237.18
2022-11-28T12:30:16.545Z,237.18
2022-11-28T12:31:16.611Z,237.18
2022-11-28T12:32:16.534Z,237.18